createdAt,value
2022-09-28T00:01:33.094Z,99178.47
2022-09-28T00:04:34.910Z,99181.12
2022-09-28T00:07:50.042Z,99171.75
2022-09-28T00:11:05.064Z,99181.06
2022-09-28T00:14:14.052Z,99171.91
2022-09-28T00:17:29.097Z,99163.44
2022-09-28T00:20:37.654Z,99157.22
2022-09-28T00:23:48.151Z,99154.72
2022-09-28T00:26:58.051Z,99153.84
2022-09-28T00:30:06.052Z,99154.06
2022-09-28T00:33:21.073Z,99149.97
2022-09-28T00:36:31.251Z,99161.53
2022-09-28T00:39:39.088Z,99162.34
2022-09-28T00:43:01.107Z,99153.91
2022-09-28T00:46:25.055Z,99168.63
2022-09-28T00:49:33.769Z,99171.28
2022-09-28T00:53:12.128Z,99169.47
2022-09-28T00:56:25.380Z,99162.22
2022-09-28T00:59:34.083Z,99163.66
2022-09-28T01:02:44.587Z,99171.28
2022-09-28T01:05:55.093Z,99177.63
2022-09-28T01:09:14.204Z,99171.88
2022-09-28T01:12:22.704Z,99166.03
2022-09-28T01:15:33.123Z,99178.66
2022-09-28T01:19:01.711Z,99183.22
2022-09-28T01:22:35.092Z,99174.56
2022-09-28T01:25:56.872Z,99164.81
2022-09-28T01:29:22.092Z,99183.03
2022-09-28T01:32:56.367Z,99182.44
2022-09-28T01:36:22.139Z,99185.16
2022-09-28T01:39:43.113Z,99200.06
2022-09-28T01:42:55.119Z,99194.06
2022-09-28T01:46:23.117Z,99189.06
2022-09-28T01:49:51.135Z,99192.34
2022-09-28T01:53:15.100Z,99195.63
2022-09-28T01:56:39.170Z,99215.69
2022-09-28T01:59:57.600Z,99209.31
2022-09-28T02:03:15.136Z,99201.03
2022-09-28T02:06:38.122Z,99201.84
2022-09-28T02:09:53.574Z,99192.94
2022-09-28T02:13:09.170Z,99201.22
2022-09-28T02:16:39.260Z,99193.13
2022-09-28T02:19:48.109Z,99197.50
2022-09-28T02:23:06.127Z,99192.94
2022-09-28T02:26:25.122Z,99193.78
2022-09-28T02:29:26.898Z,99201.25
2022-09-28T02:32:45.120Z,99193.37
2022-09-28T02:36:00.139Z,99206.84
2022-09-28T02:39:02.402Z,99209.72
2022-09-28T02:42:27.143Z,99213.84
2022-09-28T02:45:45.638Z,99209.31
2022-09-28T02:49:22.235Z,99208.47
2022-09-28T02:52:55.127Z,99182.22
2022-09-28T02:56:20.135Z,99207.69
2022-09-28T02:59:46.804Z,99209.31
2022-09-28T03:03:16.186Z,99218.59
2022-09-28T03:06:40.140Z,99218.22
2022-09-28T03:09:59.507Z,99221.75
2022-09-28T03:13:09.152Z,99237.13
2022-09-28T03:16:26.253Z,99230.69
2022-09-28T03:19:35.060Z,99230.03
2022-09-28T03:22:43.255Z,99232.25
2022-09-28T03:25:51.947Z,99241.16
2022-09-28T03:29:07.159Z,99242.25
2022-09-28T03:32:08.951Z,99229.88
2022-09-28T03:35:24.186Z,99238.41
2022-09-28T03:38:32.157Z,99230.97
2022-09-28T03:41:47.177Z,99234.28
2022-09-28T03:44:55.755Z,99233.88
2022-09-28T03:48:04.188Z,99226.66
2022-09-28T03:51:19.424Z,99231.37
2022-09-28T03:54:34.150Z,99238.91
2022-09-28T03:57:35.946Z,99247.37
2022-09-28T04:00:50.311Z,99236.41
2022-09-28T04:04:01.167Z,99239.97
2022-09-28T04:07:16.206Z,99248.47
2022-09-28T04:10:26.029Z,99240.16
2022-09-28T04:13:36.220Z,99241.25
2022-09-28T04:16:51.251Z,99233.72
2022-09-28T04:20:06.187Z,99227.16
2022-09-28T04:23:08.308Z,99234.81
2022-09-28T04:26:26.206Z,99239.81
2022-09-28T04:29:34.214Z,99236.88
2022-09-28T04:32:42.984Z,99238.75
2022-09-28T04:35:57.184Z,99238.28
2022-09-28T04:38:59.368Z,99231.22
2022-09-28T04:42:17.224Z,99234.50
2022-09-28T04:45:25.278Z,99242.41
2022-09-28T04:48:40.214Z,99237.78
2022-09-28T04:51:55.488Z,99239.09
2022-09-28T04:55:04.187Z,99236.50
2022-09-28T04:58:19.235Z,99238.44
2022-09-28T05:01:34.320Z,99229.44
2022-09-28T05:04:36.120Z,99226.00
2022-09-28T05:07:51.195Z,99242.72
2022-09-28T05:11:02.023Z,99237.34
2022-09-28T05:14:10.200Z,99244.16
2022-09-28T05:17:18.758Z,99250.75
2022-09-28T05:20:27.207Z,99244.25
2022-09-28T05:23:42.212Z,99244.91
2022-09-28T05:26:57.255Z,99247.88
2022-09-28T05:29:59.009Z,99248.06
2022-09-28T05:33:15.215Z,99248.06
2022-09-28T05:36:30.279Z,99245.25
2022-09-28T05:39:38.231Z,99260.00
2022-09-28T05:42:46.941Z,99256.38
2022-09-28T05:45:55.918Z,99244.78
2022-09-28T05:49:04.923Z,99250.03
2022-09-28T05:52:27.232Z,99249.72
2022-09-28T05:55:29.101Z,99236.41
2022-09-28T05:58:44.256Z,99236.69
2022-09-28T06:01:52.867Z,99245.19
2022-09-28T06:05:01.281Z,99243.16
2022-09-28T06:08:10.481Z,99235.94
2022-09-28T06:11:25.451Z,99245.34
2022-09-28T06:14:34.648Z,99243.00
2022-09-28T06:17:49.311Z,99243.66
2022-09-28T06:20:51.275Z,99254.78
2022-09-28T06:24:06.266Z,99245.03
2022-09-28T06:27:21.285Z,99247.03
2022-09-28T06:30:23.853Z,99235.69
2022-09-28T06:33:38.300Z,99241.25
2022-09-28T06:36:53.306Z,99244.63
2022-09-28T06:39:55.424Z,99249.84
2022-09-28T06:43:18.371Z,99239.53
2022-09-28T06:46:26.975Z,99247.06
2022-09-28T06:49:36.304Z,99249.81
2022-09-28T06:52:44.964Z,99263.13
2022-09-28T06:55:54.355Z,99256.50
2022-09-28T06:59:03.830Z,99264.19
2022-09-28T07:02:19.312Z,99265.59
2022-09-28T07:05:21.178Z,99263.22
2022-09-28T07:08:41.315Z,99272.59
2022-09-28T07:11:49.367Z,99271.97
2022-09-28T07:14:57.983Z,99263.66
2022-09-28T07:18:14.356Z,99262.63
2022-09-28T07:21:28.168Z,99261.25
2022-09-28T07:24:44.284Z,99266.28
2022-09-28T07:27:52.348Z,99253.59
2022-09-28T07:31:00.963Z,99255.91
2022-09-28T07:34:09.337Z,99256.34
2022-09-28T07:37:17.911Z,99253.87
2022-09-28T07:40:26.337Z,99253.25
2022-09-28T07:43:41.349Z,99242.25
2022-09-28T07:46:43.142Z,99250.34
2022-09-28T07:50:05.331Z,99246.41
2022-09-28T07:53:14.017Z,99251.38
2022-09-28T07:56:25.336Z,99256.59
2022-09-28T07:59:40.602Z,99253.50
2022-09-28T08:02:42.775Z,99260.16
2022-09-28T08:05:57.442Z,99260.16
2022-09-28T08:09:06.310Z,99264.09
2022-09-28T08:12:15.357Z,99275.94
2022-09-28T08:15:30.377Z,99260.94
2022-09-28T08:18:38.970Z,99261.59
2022-09-28T08:21:47.333Z,99238.72
2022-09-28T08:24:55.883Z,99228.19
2022-09-28T08:28:04.319Z,99220.47
2022-09-28T08:31:13.283Z,99221.88
2022-09-28T08:34:28.354Z,99224.84
2022-09-28T08:37:30.392Z,99225.75
2022-09-28T08:41:03.494Z,99217.94
2022-09-28T08:44:18.140Z,99217.78
2022-09-28T08:47:31.539Z,99241.41
2022-09-28T08:51:02.357Z,99243.31
2022-09-28T08:54:17.798Z,99247.19
2022-09-28T08:57:40.424Z,99244.78
2022-09-28T09:00:51.610Z,99249.34
2022-09-28T09:04:00.360Z,99239.75
2022-09-28T09:07:26.258Z,99237.16
2022-09-28T09:10:56.367Z,99233.44
2022-09-28T09:14:34.459Z,99238.37
2022-09-28T09:18:19.834Z,99231.59
2022-09-28T09:21:47.401Z,99231.00
2022-09-28T09:25:25.352Z,99227.22
2022-09-28T09:29:14.186Z,99221.81
2022-09-28T09:32:43.392Z,99225.63
2022-09-28T09:36:17.331Z,99221.41
2022-09-28T09:39:52.655Z,99219.12
2022-09-28T09:43:27.985Z,99216.44
2022-09-28T09:46:53.376Z,99216.28
2022-09-28T09:50:23.327Z,99218.16
2022-09-28T09:53:46.385Z,99221.06
2022-09-28T09:57:10.589Z,99216.13
2022-09-28T10:00:26.447Z,99217.63
2022-09-28T10:03:37.405Z,99228.47
2022-09-28T10:06:48.076Z,99214.09
2022-09-28T10:09:57.436Z,99220.88
2022-09-28T10:13:06.107Z,99225.66
2022-09-28T10:16:22.495Z,99222.91
2022-09-28T10:19:41.448Z,99226.84
2022-09-28T10:22:52.083Z,99230.47
2022-09-28T10:26:13.397Z,99223.44
2022-09-28T10:29:20.204Z,99221.00
2022-09-28T10:32:48.507Z,99221.41
2022-09-28T10:35:57.399Z,99227.12
2022-09-28T10:39:06.354Z,99222.22
2022-09-28T10:42:29.480Z,99224.69
2022-09-28T10:45:43.438Z,99218.69
2022-09-28T10:49:08.379Z,99222.66
2022-09-28T10:52:42.454Z,99229.19
2022-09-28T10:55:57.637Z,99218.31
2022-09-28T10:59:32.604Z,99218.78
2022-09-28T11:02:47.479Z,99211.44
2022-09-28T11:05:54.987Z,99204.88
2022-09-28T11:09:14.434Z,99209.53
2022-09-28T11:12:20.564Z,99201.63
2022-09-28T11:15:41.572Z,99195.38
2022-09-28T11:18:56.435Z,99194.66
2022-09-28T11:21:58.440Z,99194.59
2022-09-28T11:25:30.501Z,99194.63
2022-09-28T11:28:36.453Z,99189.19
2022-09-28T11:31:53.439Z,99184.19
2022-09-28T11:35:03.941Z,99178.37
2022-09-28T11:38:34.462Z,99179.94
2022-09-28T11:42:04.536Z,99176.63
2022-09-28T11:45:32.280Z,99180.66
2022-09-28T11:48:51.074Z,99181.25
2022-09-28T11:52:39.804Z,99185.94
2022-09-28T11:55:57.279Z,99187.09
2022-09-28T11:59:12.791Z,99182.88
2022-09-28T12:02:55.684Z,99170.19
2022-09-28T12:06:16.110Z,99165.66
2022-09-28T12:09:44.508Z,99163.47
2022-09-28T12:13:01.378Z,99155.63
2022-09-28T12:17:03.637Z,99140.31
2022-09-28T12:20:30.451Z,99138.53
2022-09-28T12:23:43.436Z,99138.75
2022-09-28T12:27:01.703Z,99136.56
2022-09-28T12:30:23.441Z,99134.69
2022-09-28T12:33:32.692Z,99141.19
2022-09-28T12:37:01.557Z,99126.72
2022-09-28T12:40:36.567Z,99111.03
2022-09-28T12:44:05.055Z,99107.66
2022-09-28T12:47:38.459Z,99106.84
2022-09-28T12:51:25.630Z,99117.25
2022-09-28T12:54:52.694Z,99111.47
2022-09-28T12:58:28.493Z,99113.06
2022-09-28T13:02:04.598Z,99105.50
2022-09-28T13:05:27.440Z,99103.53
2022-09-28T13:08:59.735Z,99110.97
2022-09-28T13:12:25.512Z,99107.63
2022-09-28T13:15:43.788Z,99093.78
2022-09-28T13:19:17.608Z,99092.84
2022-09-28T13:22:46.508Z,99100.22
2022-09-28T13:26:15.060Z,99086.94
2022-09-28T13:29:25.476Z,99098.78
2022-09-28T13:32:36.993Z,99109.19
2022-09-28T13:35:49.485Z,99114.88
2022-09-28T13:38:59.820Z,99105.88
2022-09-28T13:42:16.479Z,99097.59
2022-09-28T13:45:48.524Z,99095.81
2022-09-28T13:49:22.523Z,99101.50
2022-09-28T13:52:51.063Z,99098.19
2022-09-28T13:56:10.520Z,99092.69
2022-09-28T13:59:32.612Z,99085.00
2022-09-28T14:02:42.203Z,99080.38
2022-09-28T14:06:27.537Z,99086.16
2022-09-28T14:09:52.830Z,99092.28
2022-09-28T14:12:54.635Z,99088.53
2022-09-28T14:16:28.608Z,99099.75
2022-09-28T14:19:34.010Z,99094.50
2022-09-28T14:23:08.540Z,99094.41
2022-09-28T14:26:53.559Z,99084.84
2022-09-28T14:30:23.535Z,99083.41
2022-09-28T14:33:39.547Z,99081.41
2022-09-28T14:36:47.865Z,99084.72
2022-09-28T14:40:02.548Z,99079.75
2022-09-28T14:43:31.546Z,99085.09
2022-09-28T14:46:43.621Z,99086.00
2022-09-28T14:50:11.399Z,99066.56
2022-09-28T14:53:31.539Z,99064.75
2022-09-28T14:56:55.538Z,99064.88
2022-09-28T15:00:15.008Z,99065.72
2022-09-28T15:03:23.559Z,99061.91
2022-09-28T15:06:53.631Z,99065.94
2022-09-28T15:10:02.193Z,99067.34
2022-09-28T15:13:22.562Z,99067.75
2022-09-28T15:16:38.556Z,99061.41
2022-09-28T15:19:57.163Z,99042.22
2022-09-28T15:23:11.560Z,99053.41
2022-09-28T15:26:24.963Z,99063.00
2022-09-28T15:29:39.564Z,99058.16
2022-09-28T15:32:55.642Z,99052.47
2022-09-28T15:36:05.516Z,99046.59
2022-09-28T15:39:27.572Z,99045.41
2022-09-28T15:42:42.588Z,99055.66
2022-09-28T15:45:58.397Z,99050.69
2022-09-28T15:49:28.595Z,99051.50
2022-09-28T15:52:52.563Z,99056.53
2022-09-28T15:56:10.566Z,99062.66
2022-09-28T15:59:27.399Z,99063.34
2022-09-28T16:02:42.749Z,99055.06
2022-09-28T16:06:02.574Z,99057.16
2022-09-28T16:09:31.343Z,99050.06
2022-09-28T16:12:51.592Z,99055.59
2022-09-28T16:16:03.648Z,99058.50
2022-09-28T16:19:23.994Z,99057.09
2022-09-28T16:22:38.563Z,99054.59
2022-09-28T16:25:50.058Z,99057.38
2022-09-28T16:29:05.600Z,99049.47
2022-09-28T16:32:34.594Z,99062.44
2022-09-28T16:35:52.030Z,99057.47
2022-09-28T16:39:06.582Z,99063.72
2022-09-28T16:42:08.638Z,99057.03
2022-09-28T16:45:26.571Z,99060.31
2022-09-28T16:48:32.115Z,99059.72
2022-09-28T16:51:46.755Z,99068.09
2022-09-28T16:55:04.940Z,99064.56
2022-09-28T16:58:12.227Z,99068.34
2022-09-28T17:01:27.683Z,99065.44
2022-09-28T17:04:37.624Z,99071.78
2022-09-28T17:07:46.637Z,99072.63
2022-09-28T17:11:16.868Z,99071.56
2022-09-28T17:14:33.610Z,99072.81
2022-09-28T17:17:35.452Z,99061.66
2022-09-28T17:20:55.640Z,99065.44
2022-09-28T17:23:57.524Z,99066.34
2022-09-28T17:27:12.627Z,99074.53
2022-09-28T17:30:25.101Z,99067.28
2022-09-28T17:33:40.623Z,99073.53
2022-09-28T17:36:43.961Z,99068.09
2022-09-28T17:39:58.674Z,99076.22
2022-09-28T17:43:00.543Z,99076.09
2022-09-28T17:46:36.752Z,99086.75
2022-09-28T17:49:51.613Z,99078.91
2022-09-28T17:53:07.621Z,99081.22
2022-09-28T17:56:16.525Z,99082.69
2022-09-28T17:59:31.696Z,99083.97
2022-09-28T18:02:33.616Z,99084.84
2022-09-28T18:05:53.599Z,99089.09
2022-09-28T18:09:09.673Z,99090.38
2022-09-28T18:12:17.612Z,99097.72
2022-09-28T18:15:26.216Z,99097.50
2022-09-28T18:18:34.636Z,99089.03
2022-09-28T18:21:49.667Z,99094.87
2022-09-28T18:25:04.683Z,99093.87
2022-09-28T18:28:13.653Z,99095.53
2022-09-28T18:31:22.511Z,99098.91
2022-09-28T18:34:37.665Z,99106.03
2022-09-28T18:37:40.027Z,99083.22
2022-09-28T18:40:54.738Z,99103.56
2022-09-28T18:44:02.644Z,99105.66
2022-09-28T18:47:20.855Z,99116.50
2022-09-28T18:50:42.668Z,99116.72
2022-09-28T18:53:57.665Z,99112.97
2022-09-28T18:57:06.392Z,99119.22
2022-09-28T19:00:21.665Z,99120.28
2022-09-28T19:03:29.659Z,99118.41
2022-09-28T19:06:47.695Z,99119.44
2022-09-28T19:10:02.669Z,99113.03
2022-09-28T19:13:04.474Z,99116.16
2022-09-28T19:16:25.653Z,99122.81
2022-09-28T19:19:33.675Z,99119.69
2022-09-28T19:22:48.667Z,99123.25
2022-09-28T19:25:57.279Z,99116.78
2022-09-28T19:29:05.689Z,99119.09
2022-09-28T19:32:20.679Z,99119.13
2022-09-28T19:35:35.690Z,99116.59
2022-09-28T19:38:39.193Z,99110.59
2022-09-28T19:41:53.683Z,99111.84
2022-09-28T19:44:55.655Z,99120.12
2022-09-28T19:48:11.703Z,99117.25
2022-09-28T19:51:26.980Z,99109.53
2022-09-28T19:54:36.675Z,99114.12
2022-09-28T19:57:51.688Z,99107.44
2022-09-28T20:01:00.361Z,99105.19
2022-09-28T20:04:08.735Z,99107.91
2022-09-28T20:07:23.710Z,99097.53
2022-09-28T20:10:25.479Z,99094.63
2022-09-28T20:13:42.708Z,99099.63
2022-09-28T20:16:57.716Z,99098.38
2022-09-28T20:19:59.483Z,99097.94
2022-09-28T20:23:14.743Z,99101.91
2022-09-28T20:26:23.941Z,99098.75
2022-09-28T20:29:31.906Z,99092.13
2022-09-28T20:32:40.243Z,99101.47
2022-09-28T20:35:48.716Z,99095.25
2022-09-28T20:39:04.718Z,99089.84
2022-09-28T20:42:19.708Z,99092.16
2022-09-28T20:45:27.746Z,99083.22
2022-09-28T20:48:37.266Z,99081.53
2022-09-28T20:51:51.743Z,99087.78
2022-09-28T20:54:53.438Z,99077.38
2022-09-28T20:58:09.729Z,99072.19
2022-09-28T21:01:24.828Z,99065.75
2022-09-28T21:04:39.748Z,99065.75
2022-09-28T21:07:48.298Z,99076.56
2022-09-28T21:10:57.812Z,99062.00
2022-09-28T21:14:13.740Z,99064.06
2022-09-28T21:17:28.772Z,99059.28
2022-09-28T21:20:37.760Z,99065.94
2022-09-28T21:23:46.938Z,99058.44
2022-09-28T21:27:01.728Z,99054.28
2022-09-28T21:30:03.807Z,99047.00
2022-09-28T21:33:18.727Z,99046.81
2022-09-28T21:36:20.491Z,99048.87
2022-09-28T21:39:34.712Z,99056.37
2022-09-28T21:42:49.788Z,99057.59
2022-09-28T21:45:59.827Z,99057.44
2022-09-28T21:49:09.949Z,99053.06
2022-09-28T21:52:24.783Z,99049.94
2022-09-28T21:55:26.567Z,99053.06
2022-09-28T21:58:42.762Z,99045.34
2022-09-28T22:01:50.810Z,99053.47
2022-09-28T22:05:05.768Z,99054.94
2022-09-28T22:08:14.639Z,99061.97
2022-09-28T22:11:26.780Z,99057.00
2022-09-28T22:14:41.815Z,99051.38
2022-09-28T22:17:50.395Z,99066.53
2022-09-28T22:21:08.780Z,99058.88
2022-09-28T22:24:23.757Z,99056.56
2022-09-28T22:27:38.790Z,99057.00
2022-09-28T22:30:40.600Z,99039.13
2022-09-28T22:33:55.788Z,99030.59
2022-09-28T22:37:04.850Z,99035.38
2022-09-28T22:40:19.814Z,99038.28
2022-09-28T22:43:28.388Z,99041.00
2022-09-28T22:46:36.822Z,99035.59
2022-09-28T22:49:45.315Z,99036.41
2022-09-28T22:53:07.791Z,99036.00
2022-09-28T22:56:12.531Z,99034.31
2022-09-28T22:59:29.828Z,99048.47
2022-09-28T23:02:38.394Z,99044.94
2022-09-28T23:05:46.840Z,99045.97
2022-09-28T23:09:01.781Z,99041.19
2022-09-28T23:12:09.803Z,99047.41
2022-09-28T23:15:18.381Z,99040.13
2022-09-28T23:18:35.792Z,99045.97
2022-09-28T23:21:37.790Z,99038.69
2022-09-28T23:24:52.803Z,99040.97
2022-09-28T23:28:01.548Z,99040.78
2022-09-28T23:31:19.866Z,99033.50
2022-09-28T23:34:28.493Z,99027.69
2022-09-28T23:37:36.843Z,99026.44
2022-09-28T23:40:52.854Z,99024.78
2022-09-28T23:44:07.811Z,99038.69
2022-09-28T23:47:09.527Z,99034.31
2022-09-28T23:50:24.816Z,99037.88
2022-09-28T23:53:46.823Z,99038.47
2022-09-28T23:56:54.844Z,99046.19
